Time;durP1;ratioP1;P1;durP2;ratioP2;P2;SDS_P1;SDS_P2;PMS_P1;PMS_P2;Temp;Humidity;BMP_temperature;BMP_pressure;BME280_temperature;BME280_humidity;BME280_pressure;Samples;Min_cycle;Max_cycle;Signal;HPM_P1;HPM_P2
2024/01/31 00:01:03;;;;;;;35.13;13.73;;;;;;;;;;5016629;28;20060;-75
2024/01/31 00:03:28;;;;;;;34.88;13.13;;;;;;;;;;5016775;28;20260;-75
2024/01/31 00:05:54;;;;;;;31.65;12.88;;;;;;;;;;4999909;28;20104;-76
2024/01/31 00:08:19;;;;;;;32.30;13.77;;;;;;;;;;4999243;28;20479;-76
2024/01/31 00:10:44;;;;;;;34.47;13.83;;;;;;;;;;5016668;28;20766;-76
2024/01/31 00:13:09;;;;;;;30.38;13.23;;;;;;;;;;4997977;28;20739;-75
2024/01/31 00:15:35;;;;;;;30.85;13.70;;;;;;;;;;5016358;28;20026;-75
2024/01/31 00:18:00;;;;;;;35.30;13.37;;;;;;;;;;4999066;28;20033;-74
2024/01/31 00:20:25;;;;;;;32.72;13.95;;;;;;;;;;5016897;28;20244;-75
2024/01/31 00:22:51;;;;;;;37.10;13.93;;;;;;;;;;5016611;28;20374;-75
2024/01/31 00:25:16;;;;;;;36.93;14.77;;;;;;;;;;5016424;28;20081;-75
2024/01/31 00:27:41;;;;;;;38.95;14.73;;;;;;;;;;5016215;28;20263;-75
2024/01/31 00:30:09;;;;;;;36.80;14.40;;;;;;;;;;5016545;28;20040;-76
2024/01/31 00:32:35;;;;;;;31.98;12.82;;;;;;;;;;5016502;28;20030;-75
2024/01/31 00:35:00;;;;;;;33.70;13.20;;;;;;;;;;5016362;28;20034;-76
2024/01/31 00:37:25;;;;;;;35.47;13.47;;;;;;;;;;4998924;28;20477;-75
2024/01/31 00:39:51;;;;;;;32.15;14.18;;;;;;;;;;5016222;28;20762;-74
2024/01/31 00:42:16;;;;;;;34.83;14.68;;;;;;;;;;5015962;28;20080;-74
2024/01/31 00:44:42;;;;;;;37.07;14.13;;;;;;;;;;5015744;28;20042;-75
2024/01/31 00:47:08;;;;;;;37.47;15.40;;;;;;;;;;5015625;28;20362;-76
2024/01/31 00:49:34;;;;;;;36.60;14.73;;;;;;;;;;5015459;28;20026;-75
2024/01/31 00:51:59;;;;;;;33.75;14.05;;;;;;;;;;4998025;28;20496;-75
2024/01/31 00:54:24;;;;;;;32.83;13.35;;;;;;;;;;5015292;28;20075;-77
2024/01/31 00:56:50;;;;;;;37.80;15.17;;;;;;;;;;5015632;28;20030;-75
2024/01/31 00:59:15;;;;;;;30.00;13.20;;;;;;;;;;5015369;28;20305;-76
2024/01/31 01:01:40;;;;;;;29.77;12.82;;;;;;;;;;5015398;28;20264;-75
2024/01/31 01:04:07;;;;;;;29.85;13.05;;;;;;;;;;5015378;28;20145;-75
2024/01/31 01:06:32;;;;;;;34.25;14.65;;;;;;;;;;5015534;28;20035;-76
2024/01/31 01:08:58;;;;;;;30.00;12.90;;;;;;;;;;5015835;28;20026;-76
2024/01/31 01:11:23;;;;;;;36.90;13.30;;;;;;;;;;5015462;28;20022;-75
2024/01/31 01:13:49;;;;;;;31.45;13.90;;;;;;;;;;5015268;28;20022;-75
2024/01/31 01:16:14;;;;;;;35.95;13.85;;;;;;;;;;5015474;28;20018;-76
2024/01/31 01:18:39;;;;;;;33.83;13.95;;;;;;;;;;5015365;28;20233;-76
2024/01/31 01:21:05;;;;;;;35.97;14.30;;;;;;;;;;5015619;28;20080;-74
2024/01/31 01:23:30;;;;;;;36.65;15.32;;;;;;;;;;5014737;28;20038;-74
2024/01/31 01:25:55;;;;;;;34.75;15.13;;;;;;;;;;5015358;28;20037;-75
2024/01/31 01:28:20;;;;;;;41.22;14.73;;;;;;;;;;5014488;28;20026;-75
2024/01/31 01:30:46;;;;;;;34.27;13.97;;;;;;;;;;5014469;28;20025;-75
2024/01/31 01:33:11;;;;;;;33.63;14.40;;;;;;;;;;4997167;28;20313;-77
2024/01/31 01:35:36;;;;;;;39.40;14.95;;;;;;;;;;4997610;28;20268;-77
2024/01/31 01:38:01;;;;;;;35.30;14.77;;;;;;;;;;5015092;28;20120;-74
2024/01/31 01:40:27;;;;;;;38.97;14.57;;;;;;;;;;5014995;28;20306;-75
2024/01/31 01:42:52;;;;;;;35.60;14.70;;;;;;;;;;5014520;28;20259;-75
2024/01/31 01:45:17;;;;;;;36.63;14.77;;;;;;;;;;5014404;28;20258;-76
2024/01/31 01:47:48;;;;;;;34.78;14.15;;;;;;;;;;5014384;28;20021;-75
2024/01/31 01:50:13;;;;;;;35.63;13.88;;;;;;;;;;5014309;28;20025;-76
2024/01/31 01:52:39;;;;;;;36.13;14.70;;;;;;;;;;5014340;28;20033;-75
2024/01/31 01:55:04;;;;;;;33.72;14.35;;;;;;;;;;4996576;28;20129;-75
2024/01/31 01:57:31;;;;;;;32.85;13.98;;;;;;;;;;5014091;28;20477;-75
2024/01/31 01:59:57;;;;;;;32.80;14.25;;;;;;;;;;4996473;28;20022;-75
2024/01/31 02:02:23;;;;;;;36.30;14.40;;;;;;;;;;5014219;28;20471;-75
2024/01/31 02:04:49;;;;;;;33.72;13.85;;;;;;;;;;5013912;28;20026;-75
2024/01/31 02:07:14;;;;;;;36.95;14.82;;;;;;;;;;5013971;28;20043;-75
2024/01/31 02:09:39;;;;;;;33.58;13.35;;;;;;;;;;5014066;28;20030;-75
2024/01/31 02:12:05;;;;;;;35.17;14.73;;;;;;;;;;4996808;28;20393;-75
2024/01/31 02:14:30;;;;;;;33.90;13.93;;;;;;;;;;5013866;28;20030;-76
2024/01/31 02:16:57;;;;;;;35.27;14.50;;;;;;;;;;4996493;28;20207;-76
2024/01/31 02:19:22;;;;;;;37.05;15.43;;;;;;;;;;5013690;28;20264;-75
2024/01/31 02:21:48;;;;;;;36.40;14.32;;;;;;;;;;5013946;28;20034;-75
2024/01/31 02:24:13;;;;;;;34.00;14.20;;;;;;;;;;5013961;28;20057;-77
2024/01/31 02:26:39;;;;;;;32.53;14.20;;;;;;;;;;4996237;28;20025;-76
2024/01/31 02:29:04;;;;;;;34.17;14.38;;;;;;;;;;5013605;28;20482;-76
2024/01/31 02:31:29;;;;;;;35.20;14.77;;;;;;;;;;5013489;28;20080;-76
2024/01/31 02:33:54;;;;;;;32.47;14.40;;;;;;;;;;5013473;28;20026;-75
2024/01/31 02:36:20;;;;;;;36.30;15.05;;;;;;;;;;5013596;28;20313;-76
2024/01/31 02:38:45;;;;;;;37.40;15.43;;;;;;;;;;5013904;28;20026;-76
2024/01/31 02:41:11;;;;;;;32.47;14.57;;;;;;;;;;5014038;28;20096;-76
2024/01/31 02:43:36;;;;;;;32.72;15.13;;;;;;;;;;4999335;28;20030;-76
2024/01/31 02:46:01;;;;;;;34.50;15.17;;;;;;;;;;5016142;28;20088;-76
2024/01/31 02:48:26;;;;;;;39.67;15.40;;;;;;;;;;5017188;28;20271;-75
2024/01/31 02:50:51;;;;;;;34.97;14.13;;;;;;;;;;5017681;28;20311;-75
2024/01/31 02:53:17;;;;;;;43.00;15.93;;;;;;;;;;5016826;28;20041;-76
2024/01/31 02:55:42;;;;;;;34.63;14.97;;;;;;;;;;5015371;28;20069;-76
2024/01/31 02:58:07;;;;;;;30.95;14.48;;;;;;;;;;5013581;28;20266;-77
2024/01/31 03:00:32;;;;;;;35.20;15.47;;;;;;;;;;5017307;28;20374;-77
2024/01/31 03:02:57;;;;;;;35.55;14.80;;;;;;;;;;5018785;28;20650;-76
2024/01/31 03:05:23;;;;;;;42.03;15.60;;;;;;;;;;5015720;28;20458;-76
2024/01/31 03:07:48;;;;;;;35.87;14.10;;;;;;;;;;5016149;28;20291;-75
2024/01/31 03:10:13;;;;;;;33.47;14.03;;;;;;;;;;5016058;28;20290;-76
2024/01/31 03:12:38;;;;;;;38.90;15.30;;;;;;;;;;5014859;28;20666;-76
2024/01/31 03:15:04;;;;;;;36.08;14.50;;;;;;;;;;5014186;28;20026;-77
2024/01/31 03:17:35;;;;;;;31.83;13.93;;;;;;;;;;4996586;28;20045;-75
2024/01/31 03:20:00;;;;;;;32.85;14.07;;;;;;;;;;5017271;28;20026;-75
2024/01/31 03:22:26;;;;;;;35.92;13.70;;;;;;;;;;4999236;28;20034;-74
2024/01/31 03:24:51;;;;;;;32.83;14.37;;;;;;;;;;5017054;28;20026;-75
2024/01/31 03:27:16;;;;;;;30.50;13.67;;;;;;;;;;5019274;28;20271;-75
2024/01/31 03:29:41;;;;;;;33.70;14.27;;;;;;;;;;5018976;28;20275;-74
2024/01/31 03:32:07;;;;;;;35.22;14.40;;;;;;;;;;5018791;28;20255;-75
2024/01/31 03:34:32;;;;;;;34.63;14.53;;;;;;;;;;5018263;28;20084;-75
2024/01/31 03:36:57;;;;;;;33.90;14.60;;;;;;;;;;5018042;28;20272;-76
2024/01/31 03:39:22;;;;;;;33.42;13.98;;;;;;;;;;4999920;28;20329;-76
2024/01/31 03:41:49;;;;;;;33.83;14.32;;;;;;;;;;5017556;28;20029;-76
2024/01/31 03:44:14;;;;;;;30.58;12.93;;;;;;;;;;4999607;28;20477;-76
2024/01/31 03:46:39;;;;;;;35.90;15.07;;;;;;;;;;5017356;28;20041;-76
2024/01/31 03:49:05;;;;;;;35.30;14.38;;;;;;;;;;5017130;28;20030;-77
2024/01/31 03:51:30;;;;;;;36.63;14.88;;;;;;;;;;4999233;28;20033;-75
2024/01/31 03:53:55;;;;;;;35.92;14.68;;;;;;;;;;5016800;28;20061;-74
2024/01/31 03:56:20;;;;;;;36.07;15.33;;;;;;;;;;4999384;28;20587;-76
2024/01/31 03:58:46;;;;;;;37.10;14.88;;;;;;;;;;4999496;28;20809;-76
2024/01/31 04:01:15;;;;;;;34.15;14.75;;;;;;;;;;4999154;28;20049;-74
2024/01/31 04:03:43;;;;;;;35.47;15.40;;;;;;;;;;5017408;28;20025;-75
2024/01/31 04:06:08;;;;;;;35.08;15.52;;;;;;;;;;5000565;28;20054;-75
2024/01/31 04:08:34;;;;;;;39.25;15.63;;;;;;;;;;5018173;28;20026;-75
2024/01/31 04:10:59;;;;;;;39.78;15.55;;;;;;;;;;5018236;28;20022;-75
2024/01/31 04:13:24;;;;;;;38.55;15.18;;;;;;;;;;5017504;28;20056;-75
2024/01/31 04:15:49;;;;;;;37.47;14.77;;;;;;;;;;5017425;28;20037;-75
2024/01/31 04:18:15;;;;;;;37.88;14.75;;;;;;;;;;5017216;28;20278;-75
2024/01/31 04:20:40;;;;;;;36.55;15.18;;;;;;;;;;5017470;28;20026;-75
2024/01/31 04:23:06;;;;;;;38.72;14.85;;;;;;;;;;5017275;28;20029;-76
2024/01/31 04:25:31;;;;;;;33.88;14.98;;;;;;;;;;5017299;28;20026;-76
2024/01/31 04:27:56;;;;;;;43.40;15.32;;;;;;;;;;5017350;28;20504;-76
2024/01/31 04:30:22;;;;;;;44.70;15.93;;;;;;;;;;5016496;28;20026;-76
2024/01/31 04:32:47;;;;;;;35.65;13.80;;;;;;;;;;4998566;28;20274;-76
2024/01/31 04:35:12;;;;;;;38.20;15.10;;;;;;;;;;5016070;28;20084;-74
2024/01/31 04:37:38;;;;;;;34.23;14.97;;;;;;;;;;4997964;28;20260;-75
2024/01/31 04:40:04;;;;;;;40.40;16.27;;;;;;;;;;4998185;28;20266;-75
2024/01/31 04:42:30;;;;;;;37.45;15.77;;;;;;;;;;4998358;28;20026;-77
2024/01/31 04:44:55;;;;;;;34.67;14.85;;;;;;;;;;5015449;28;20104;-74
2024/01/31 04:47:22;;;;;;;37.53;15.50;;;;;;;;;;5016262;28;20029;-75
2024/01/31 04:49:47;;;;;;;39.30;15.45;;;;;;;;;;4997878;28;20286;-74
2024/01/31 04:52:12;;;;;;;39.67;15.50;;;;;;;;;;5015417;28;20029;-74
2024/01/31 04:54:41;;;;;;;32.90;14.27;;;;;;;;;;5015525;28;20259;-74
2024/01/31 04:57:06;;;;;;;40.60;15.52;;;;;;;;;;5015403;28;20263;-75
2024/01/31 04:59:36;;;;;;;39.10;15.23;;;;;;;;;;5015642;28;20381;-75
2024/01/31 05:02:01;;;;;;;34.10;15.38;;;;;;;;;;5015175;28;20267;-75
2024/01/31 05:04:26;;;;;;;37.00;15.57;;;;;;;;;;5014865;28;20164;-74
2024/01/31 05:06:52;;;;;;;36.55;16.23;;;;;;;;;;5014831;28;20318;-73
2024/01/31 05:09:17;;;;;;;35.72;15.60;;;;;;;;;;5014539;28;20084;-74
2024/01/31 05:11:42;;;;;;;35.30;15.17;;;;;;;;;;5014679;28;20032;-74
2024/01/31 05:14:09;;;;;;;33.25;14.73;;;;;;;;;;5014511;28;20262;-75
2024/01/31 05:16:38;;;;;;;39.92;17.58;;;;;;;;;;5015133;28;20539;-74
2024/01/31 05:19:04;;;;;;;36.22;16.20;;;;;;;;;;5014574;28;20024;-74
2024/01/31 05:21:29;;;;;;;34.95;15.68;;;;;;;;;;5014546;28;20412;-74
2024/01/31 05:23:54;;;;;;;39.00;15.43;;;;;;;;;;5014485;28;20115;-75
2024/01/31 05:26:19;;;;;;;37.73;16.10;;;;;;;;;;5014603;28;20618;-75
2024/01/31 05:28:44;;;;;;;42.63;17.45;;;;;;;;;;5014565;28;20646;-74
2024/01/31 05:31:10;;;;;;;38.40;16.83;;;;;;;;;;5014576;28;20026;-75
2024/01/31 05:33:35;;;;;;;37.77;16.20;;;;;;;;;;5015123;28;20030;-75
2024/01/31 05:36:01;;;;;;;36.20;16.63;;;;;;;;;;5015737;28;20266;-75
2024/01/31 05:38:26;;;;;;;39.03;17.08;;;;;;;;;;5016009;28;20259;-75
2024/01/31 05:40:51;;;;;;;35.85;16.60;;;;;;;;;;5015044;28;20084;-75
2024/01/31 05:43:18;;;;;;;32.50;15.48;;;;;;;;;;5014531;28;20487;-75
2024/01/31 05:45:43;;;;;;;40.25;16.27;;;;;;;;;;5014639;28;20045;-76
2024/01/31 05:48:08;;;;;;;38.53;16.80;;;;;;;;;;4996493;28;20018;-75
2024/01/31 05:50:34;;;;;;;37.20;16.25;;;;;;;;;;5014951;28;20205;-75
2024/01/31 05:52:59;;;;;;;36.90;15.70;;;;;;;;;;5015248;28;20037;-75
2024/01/31 05:55:24;;;;;;;40.13;16.52;;;;;;;;;;5015076;28;20302;-75
2024/01/31 05:57:49;;;;;;;37.22;16.27;;;;;;;;;;4996506;28;20026;-75
2024/01/31 06:00:16;;;;;;;41.35;16.83;;;;;;;;;;4996281;28;20030;-75
2024/01/31 06:02:42;;;;;;;39.03;16.48;;;;;;;;;;4996106;28;20486;-75
2024/01/31 06:05:07;;;;;;;44.50;17.52;;;;;;;;;;4996133;28;20041;-75
2024/01/31 06:07:32;;;;;;;42.40;17.70;;;;;;;;;;5013532;28;20116;-75
2024/01/31 06:09:58;;;;;;;42.63;17.37;;;;;;;;;;5013752;28;20030;-75
2024/01/31 06:12:23;;;;;;;40.50;17.38;;;;;;;;;;5013542;28;20313;-75
2024/01/31 06:14:48;;;;;;;38.40;16.80;;;;;;;;;;5013439;28;20052;-75
2024/01/31 06:17:14;;;;;;;37.30;16.13;;;;;;;;;;5013349;28;20275;-76
2024/01/31 06:19:40;;;;;;;37.08;16.45;;;;;;;;;;5014006;28;20259;-74
2024/01/31 06:22:05;;;;;;;41.88;16.95;;;;;;;;;;4995633;28;20022;-74
2024/01/31 06:24:30;;;;;;;40.40;18.40;;;;;;;;;;5013480;28;20034;-74
2024/01/31 06:26:55;;;;;;;48.77;16.47;;;;;;;;;;5013304;28;20184;-75
2024/01/31 06:29:21;;;;;;;42.93;17.43;;;;;;;;;;5013322;28;20294;-75
2024/01/31 06:31:47;;;;;;;39.88;16.35;;;;;;;;;;5013439;28;20290;-75
2024/01/31 06:34:13;;;;;;;38.85;16.42;;;;;;;;;;5013374;28;20029;-75
2024/01/31 06:36:39;;;;;;;37.67;16.17;;;;;;;;;;5013616;28;20026;-75
2024/01/31 06:39:04;;;;;;;40.20;17.38;;;;;;;;;;5013418;28;20169;-75
2024/01/31 06:41:30;;;;;;;39.78;16.80;;;;;;;;;;5013387;28;20029;-74
2024/01/31 06:43:55;;;;;;;41.15;16.38;;;;;;;;;;5012971;28;20497;-75
2024/01/31 06:46:20;;;;;;;35.78;16.65;;;;;;;;;;5013164;28;20467;-75
2024/01/31 06:48:46;;;;;;;37.60;16.15;;;;;;;;;;4995534;28;20128;-74
2024/01/31 06:51:11;;;;;;;33.30;15.45;;;;;;;;;;5013555;28;20044;-74
2024/01/31 06:53:36;;;;;;;47.33;17.33;;;;;;;;;;4995649;28;20456;-74
2024/01/31 06:56:01;;;;;;;40.50;17.17;;;;;;;;;;5013560;28;20026;-74
2024/01/31 06:58:27;;;;;;;38.40;15.70;;;;;;;;;;4996129;28;20025;-74
2024/01/31 07:00:55;;;;;;;36.90;15.82;;;;;;;;;;4999698;28;20546;-74
2024/01/31 07:03:20;;;;;;;38.83;16.08;;;;;;;;;;5017263;28;20409;-75
2024/01/31 07:05:46;;;;;;;46.08;16.88;;;;;;;;;;4999899;28;20018;-75
2024/01/31 07:08:11;;;;;;;37.30;16.23;;;;;;;;;;5018492;28;20032;-75
2024/01/31 07:10:36;;;;;;;38.40;16.55;;;;;;;;;;5017398;28;20074;-74
2024/01/31 07:13:02;;;;;;;38.63;16.60;;;;;;;;;;5016889;28;20501;-74
2024/01/31 07:15:27;;;;;;;40.85;16.73;;;;;;;;;;5017099;28;20026;-75
2024/01/31 07:17:52;;;;;;;36.75;16.00;;;;;;;;;;5017596;28;20551;-76
2024/01/31 07:20:18;;;;;;;40.25;15.95;;;;;;;;;;5017112;28;20092;-75
2024/01/31 07:22:43;;;;;;;42.00;16.27;;;;;;;;;;5016773;28;20112;-75
2024/01/31 07:25:13;;;;;;;35.35;15.40;;;;;;;;;;5016874;28;20282;-75
2024/01/31 07:27:40;;;;;;;40.65;16.27;;;;;;;;;;5016847;28;20481;-76
2024/01/31 07:30:10;;;;;;;38.58;16.40;;;;;;;;;;4999108;28;20029;-75
2024/01/31 07:32:36;;;;;;;42.53;16.65;;;;;;;;;;5018466;28;20038;-81
2024/01/31 07:35:02;;;;;;;42.25;17.23;;;;;;;;;;5019193;28;20065;-80
2024/01/31 07:37:27;;;;;;;44.60;17.05;;;;;;;;;;5003024;28;20409;-79
2024/01/31 07:39:56;;;;;;;43.30;16.80;;;;;;;;;;5021687;28;20105;-77
2024/01/31 07:42:21;;;;;;;40.38;17.80;;;;;;;;;;5021190;28;20385;-77
2024/01/31 07:44:46;;;;;;;38.05;17.33;;;;;;;;;;5021514;28;20061;-77
2024/01/31 07:47:11;;;;;;;37.87;16.40;;;;;;;;;;5020187;28;20481;-77
2024/01/31 07:49:36;;;;;;;37.15;16.55;;;;;;;;;;5000258;28;20282;-78
2024/01/31 07:52:02;;;;;;;42.40;15.80;;;;;;;;;;5019890;28;20018;-78
2024/01/31 07:54:27;;;;;;;44.13;17.85;;;;;;;;;;5018177;28;20743;-79
2024/01/31 07:56:52;;;;;;;38.15;17.17;;;;;;;;;;4999568;28;20029;-73
2024/01/31 07:59:18;;;;;;;33.57;16.40;;;;;;;;;;5018509;28;20481;-82
2024/01/31 08:01:43;;;;;;;37.00;16.33;;;;;;;;;;4998437;28;20584;-75
2024/01/31 08:04:08;;;;;;;44.22;16.90;;;;;;;;;;5015759;28;20405;-76
2024/01/31 08:06:35;;;;;;;40.77;16.57;;;;;;;;;;5015637;28;20028;-79
2024/01/31 08:09:00;;;;;;;40.88;16.00;;;;;;;;;;5016288;28;20266;-77
2024/01/31 08:11:25;;;;;;;38.83;15.63;;;;;;;;;;5014749;28;20017;-76
2024/01/31 08:13:50;;;;;;;39.47;16.60;;;;;;;;;;5015584;28;20030;-77
2024/01/31 08:16:16;;;;;;;41.53;16.83;;;;;;;;;;5015814;28;20087;-77
2024/01/31 08:18:42;;;;;;;39.40;16.58;;;;;;;;;;5017890;28;20268;-78
2024/01/31 08:21:07;;;;;;;40.35;16.95;;;;;;;;;;5017077;28;20025;-77
2024/01/31 08:23:32;;;;;;;39.67;15.95;;;;;;;;;;4997735;28;20030;-77
2024/01/31 08:25:58;;;;;;;38.67;16.70;;;;;;;;;;5016829;28;20100;-79
2024/01/31 08:28:23;;;;;;;35.73;16.80;;;;;;;;;;5016688;28;20499;-77
2024/01/31 08:30:48;;;;;;;38.87;16.70;;;;;;;;;;5016975;28;20654;-76
2024/01/31 08:33:13;;;;;;;37.80;17.27;;;;;;;;;;5000430;28;20685;-78
2024/01/31 08:35:38;;;;;;;45.67;18.10;;;;;;;;;;5016594;28;20681;-80
2024/01/31 08:38:04;;;;;;;41.15;16.08;;;;;;;;;;4998372;28;20670;-77
2024/01/31 08:40:29;;;;;;;39.08;16.60;;;;;;;;;;5017380;28;20036;-80
2024/01/31 08:42:58;;;;;;;37.38;15.98;;;;;;;;;;5019926;28;20026;-82
2024/01/31 08:45:23;;;;;;;39.35;17.10;;;;;;;;;;5021941;28;20034;-82
2024/01/31 08:47:49;;;;;;;48.17;17.85;;;;;;;;;;5002120;28;20026;-77
2024/01/31 08:50:14;;;;;;;34.90;16.47;;;;;;;;;;5015859;28;20029;-77
2024/01/31 08:52:39;;;;;;;38.65;16.73;;;;;;;;;;5015557;28;20255;-76
2024/01/31 08:55:05;;;;;;;46.70;17.70;;;;;;;;;;5015359;28;20026;-74
2024/01/31 08:57:30;;;;;;;37.53;17.08;;;;;;;;;;4997082;28;20024;-76
2024/01/31 08:59:56;;;;;;;36.25;16.33;;;;;;;;;;5014990;28;20018;-76
2024/01/31 09:02:21;;;;;;;38.70;16.17;;;;;;;;;;5014547;28;20093;-76
2024/01/31 09:04:46;;;;;;;42.08;15.80;;;;;;;;;;5014538;28;20256;-76
2024/01/31 09:07:12;;;;;;;43.30;15.77;;;;;;;;;;5014489;28;20054;-76
2024/01/31 09:09:38;;;;;;;38.38;15.38;;;;;;;;;;5014394;28;20510;-75
2024/01/31 09:12:05;;;;;;;35.40;15.43;;;;;;;;;;5014958;28;20029;-76
2024/01/31 09:14:30;;;;;;;36.92;15.95;;;;;;;;;;5014914;28;20432;-75
2024/01/31 09:16:55;;;;;;;37.10;16.10;;;;;;;;;;5014726;28;20017;-77
2024/01/31 09:19:21;;;;;;;33.10;15.60;;;;;;;;;;5014463;28;20030;-77
2024/01/31 09:21:46;;;;;;;53.80;17.83;;;;;;;;;;5014017;28;20314;-76
2024/01/31 09:24:11;;;;;;;34.97;15.88;;;;;;;;;;4995939;28;20030;-75
2024/01/31 09:26:36;;;;;;;35.88;15.65;;;;;;;;;;5013398;28;20033;-77
2024/01/31 09:29:02;;;;;;;37.35;15.40;;;;;;;;;;5014166;28;20025;-77
2024/01/31 09:31:28;;;;;;;33.80;15.32;;;;;;;;;;5013572;28;20030;-77
2024/01/31 09:33:54;;;;;;;38.65;15.77;;;;;;;;;;5013916;28;20021;-77
2024/01/31 09:36:19;;;;;;;42.67;15.93;;;;;;;;;;5013934;28;20029;-76
2024/01/31 09:38:47;;;;;;;33.58;15.35;;;;;;;;;;5014147;28;20045;-77
2024/01/31 09:41:14;;;;;;;39.75;15.43;;;;;;;;;;5013838;28;20389;-77
2024/01/31 09:43:39;;;;;;;40.63;15.25;;;;;;;;;;5013562;28;20037;-76
2024/01/31 09:46:04;;;;;;;38.95;16.27;;;;;;;;;;4996483;28;20018;-75
2024/01/31 09:48:31;;;;;;;34.08;16.75;;;;;;;;;;5013969;28;20022;-77
2024/01/31 09:50:59;;;;;;;41.63;17.33;;;;;;;;;;4995989;28;20378;-75
2024/01/31 09:53:24;;;;;;;39.22;17.30;;;;;;;;;;5013701;28;20022;-77
2024/01/31 09:55:54;;;;;;;50.92;17.85;;;;;;;;;;4997220;28;20025;-77
2024/01/31 09:58:19;;;;;;;47.05;18.13;;;;;;;;;;5014115;28;20072;-77
2024/01/31 10:00:45;;;;;;;44.63;17.67;;;;;;;;;;5014150;28;20018;-77
2024/01/31 10:03:10;;;;;;;34.55;16.17;;;;;;;;;;5013942;28;20032;-77
2024/01/31 10:05:35;;;;;;;36.47;16.33;;;;;;;;;;5014064;28;20029;-77
2024/01/31 10:08:04;;;;;;;41.37;17.40;;;;;;;;;;5013815;28;20029;-77
2024/01/31 10:10:30;;;;;;;38.67;17.45;;;;;;;;;;4996134;28;20362;-77
2024/01/31 10:12:55;;;;;;;39.38;16.70;;;;;;;;;;5013806;28;20508;-76
2024/01/31 10:15:21;;;;;;;36.92;16.50;;;;;;;;;;4995791;28;20025;-76
2024/01/31 10:17:46;;;;;;;43.63;17.33;;;;;;;;;;5013668;28;20022;-77
2024/01/31 10:20:13;;;;;;;36.88;16.65;;;;;;;;;;5013399;28;20476;-75
2024/01/31 10:22:38;;;;;;;39.88;15.77;;;;;;;;;;5013657;28;20366;-76
2024/01/31 10:25:05;;;;;;;37.00;16.63;;;;;;;;;;4995624;28;20032;-75
2024/01/31 10:27:34;;;;;;;37.83;16.67;;;;;;;;;;5013319;28;20374;-76
2024/01/31 10:29:59;;;;;;;35.92;16.05;;;;;;;;;;5013352;28;20489;-76
2024/01/31 10:32:25;;;;;;;36.38;16.40;;;;;;;;;;4996017;28;20026;-76
2024/01/31 10:34:52;;;;;;;40.67;15.75;;;;;;;;;;5013094;28;20555;-78
2024/01/31 10:37:18;;;;;;;44.33;16.95;;;;;;;;;;4995608;28;20033;-76
2024/01/31 10:39:45;;;;;;;42.50;18.08;;;;;;;;;;4995502;28;20022;-76
2024/01/31 10:42:11;;;;;;;40.55;16.67;;;;;;;;;;5013142;28;20029;-77
2024/01/31 10:44:37;;;;;;;42.95;17.02;;;;;;;;;;4995335;28;20026;-77
2024/01/31 10:47:04;;;;;;;36.25;15.35;;;;;;;;;;5013319;28;20041;-77
2024/01/31 10:49:29;;;;;;;37.92;16.38;;;;;;;;;;5013153;28;20485;-76
2024/01/31 10:51:57;;;;;;;37.33;16.53;;;;;;;;;;5013164;28;20132;-76
2024/01/31 10:54:27;;;;;;;33.40;15.88;;;;;;;;;;5012798;28;20306;-76
2024/01/31 10:56:52;;;;;;;40.53;16.85;;;;;;;;;;5013244;28;20025;-76
2024/01/31 10:59:18;;;;;;;37.20;16.73;;;;;;;;;;5013075;28;20386;-77
2024/01/31 11:01:59;;;;;;;38.75;16.33;;;;;;;;;;5013480;28;20022;-77
2024/01/31 11:04:24;;;;;;;35.60;16.02;;;;;;;;;;5013165;28;20104;-75
2024/01/31 11:06:50;;;;;;;44.33;16.05;;;;;;;;;;5012857;28;20481;-78
2024/01/31 11:09:25;;;;;;;36.20;16.20;;;;;;;;;;5012841;28;20505;-76
2024/01/31 11:12:12;;;;;;;48.65;17.30;;;;;;;;;;4995064;28;20048;-76
2024/01/31 11:14:40;;;;;;;35.90;17.10;;;;;;;;;;5012649;28;20049;-76
2024/01/31 11:17:07;;;;;;;38.50;16.27;;;;;;;;;;4994432;28;20036;-77
2024/01/31 11:19:39;;;;;;;35.50;16.20;;;;;;;;;;5011209;28;20030;-76
2024/01/31 11:22:04;;;;;;;39.30;16.95;;;;;;;;;;5012876;28;20030;-75
2024/01/31 11:24:29;;;;;;;41.45;17.23;;;;;;;;;;5012520;28;20049;-76
2024/01/31 11:26:55;;;;;;;37.50;16.30;;;;;;;;;;5012647;28;20032;-77
2024/01/31 11:29:20;;;;;;;35.90;16.52;;;;;;;;;;4994933;28;20468;-74
2024/01/31 11:31:45;;;;;;;39.07;17.70;;;;;;;;;;5012355;28;20478;-76
2024/01/31 11:34:12;;;;;;;38.35;16.25;;;;;;;;;;5012602;28;20762;-76
2024/01/31 11:36:37;;;;;;;41.47;16.77;;;;;;;;;;4994993;28;20448;-76
2024/01/31 11:39:05;;;;;;;39.47;17.17;;;;;;;;;;5012601;28;20157;-78
2024/01/31 11:41:30;;;;;;;33.35;16.05;;;;;;;;;;5012625;28;20374;-77
2024/01/31 11:43:55;;;;;;;44.90;16.70;;;;;;;;;;5012186;28;20120;-76
2024/01/31 11:46:20;;;;;;;39.95;16.95;;;;;;;;;;5013806;28;20030;-77
2024/01/31 11:48:47;;;;;;;35.72;15.80;;;;;;;;;;5015984;28;20026;-76
2024/01/31 11:51:13;;;;;;;35.83;16.52;;;;;;;;;;5016091;28;20052;-76
2024/01/31 11:53:38;;;;;;;37.65;17.50;;;;;;;;;;5015822;28;20105;-76
2024/01/31 11:56:04;;;;;;;36.05;16.65;;;;;;;;;;4998455;28;20080;-75
2024/01/31 11:58:30;;;;;;;39.10;16.60;;;;;;;;;;5015889;28;20103;-76
2024/01/31 12:00:55;;;;;;;40.42;16.20;;;;;;;;;;5016076;28;20025;-76
2024/01/31 12:03:21;;;;;;;37.28;17.25;;;;;;;;;;5015820;28;20505;-77
2024/01/31 12:05:57;;;;;;;41.67;17.10;;;;;;;;;;5015622;28;20477;-77
2024/01/31 12:08:26;;;;;;;40.42;16.90;;;;;;;;;;5016178;28;20030;-77
2024/01/31 12:10:52;;;;;;;37.30;16.08;;;;;;;;;;5015774;28;20500;-77
2024/01/31 12:13:18;;;;;;;35.72;17.10;;;;;;;;;;5015723;28;20030;-76
2024/01/31 12:15:46;;;;;;;37.65;16.60;;;;;;;;;;5015658;28;20025;-77
2024/01/31 12:18:11;;;;;;;39.55;15.57;;;;;;;;;;5015457;28;20507;-76
2024/01/31 12:20:36;;;;;;;42.30;18.33;;;;;;;;;;5015718;28;20104;-77
2024/01/31 12:23:01;;;;;;;33.93;16.13;;;;;;;;;;5015384;28;20120;-77
2024/01/31 12:25:27;;;;;;;35.90;15.60;;;;;;;;;;5015428;28;20302;-76
2024/01/31 12:27:53;;;;;;;35.55;16.60;;;;;;;;;;5015796;28;20029;-76
2024/01/31 12:30:18;;;;;;;39.30;18.17;;;;;;;;;;4997550;28;20037;-76
2024/01/31 12:32:43;;;;;;;45.37;17.60;;;;;;;;;;5015157;28;20400;-76
2024/01/31 12:35:08;;;;;;;39.37;16.93;;;;;;;;;;5015457;28;20720;-77
2024/01/31 12:37:33;;;;;;;35.10;17.20;;;;;;;;;;5015756;28;20737;-76
2024/01/31 12:39:59;;;;;;;37.35;17.33;;;;;;;;;;5015126;28;20029;-77
2024/01/31 12:42:24;;;;;;;40.35;16.48;;;;;;;;;;5014917;28;20028;-76
2024/01/31 12:44:49;;;;;;;36.20;16.92;;;;;;;;;;4997352;28;20057;-76
2024/01/31 12:47:14;;;;;;;35.03;16.13;;;;;;;;;;5014989;28;20493;-76
2024/01/31 12:49:41;;;;;;;41.38;16.92;;;;;;;;;;5014754;28;20801;-77
2024/01/31 12:52:06;;;;;;;41.10;16.65;;;;;;;;;;5014971;28;20080;-76
2024/01/31 12:54:32;;;;;;;35.88;16.73;;;;;;;;;;5014772;28;20026;-76
2024/01/31 12:56:57;;;;;;;38.80;16.40;;;;;;;;;;4996856;28;20032;-76
2024/01/31 12:59:27;;;;;;;36.87;17.03;;;;;;;;;;5015456;28;20029;-76
2024/01/31 13:01:52;;;;;;;35.28;16.23;;;;;;;;;;5015844;28;20339;-77
2024/01/31 13:04:17;;;;;;;36.13;16.23;;;;;;;;;;5017877;28;20050;-77
2024/01/31 13:06:43;;;;;;;40.25;16.05;;;;;;;;;;5015610;28;20030;-78
2024/01/31 13:09:09;;;;;;;22.48;10.95;;;;;;;;;;5015407;28;20030;-76
2024/01/31 13:11:34;;;;;;;20.45;9.48;;;;;;;;;;4996735;28;20026;-75
2024/01/31 13:13:59;;;;;;;12.23;6.22;;;;;;;;;;5014998;28;20067;-76
2024/01/31 13:16:25;;;;;;;11.18;5.80;;;;;;;;;;5014489;28;20033;-74
2024/01/31 13:18:50;;;;;;;13.10;5.68;;;;;;;;;;5016053;28;20026;-76
2024/01/31 13:21:16;;;;;;;7.47;4.75;;;;;;;;;;5014492;28;20034;-77
2024/01/31 13:23:41;;;;;;;6.65;4.03;;;;;;;;;;5014391;28;20075;-77
2024/01/31 13:26:07;;;;;;;7.75;4.03;;;;;;;;;;5014348;28;20026;-75
2024/01/31 13:28:32;;;;;;;5.50;4.03;;;;;;;;;;5014765;28;20033;-76
2024/01/31 13:30:57;;;;;;;6.75;4.40;;;;;;;;;;5014555;28;20033;-76
2024/01/31 13:33:23;;;;;;;7.00;4.18;;;;;;;;;;4996322;28;20029;-77
2024/01/31 13:35:48;;;;;;;5.90;4.20;;;;;;;;;;5014216;28;20481;-76
2024/01/31 13:38:13;;;;;;;8.13;4.55;;;;;;;;;;5014322;28;20746;-76
2024/01/31 13:40:38;;;;;;;6.72;4.28;;;;;;;;;;4996718;28;20462;-77
2024/01/31 13:43:04;;;;;;;6.60;4.40;;;;;;;;;;4996122;28;20032;-76
2024/01/31 13:45:30;;;;;;;10.40;4.53;;;;;;;;;;5014040;28;20033;-75
2024/01/31 13:47:55;;;;;;;6.57;4.50;;;;;;;;;;4996040;28;20048;-76
2024/01/31 13:50:20;;;;;;;6.90;4.28;;;;;;;;;;5013630;28;20022;-76
2024/01/31 13:52:45;;;;;;;6.30;4.43;;;;;;;;;;5013892;28;20022;-76
2024/01/31 13:55:10;;;;;;;8.30;4.73;;;;;;;;;;5014285;28;20317;-76
2024/01/31 13:57:36;;;;;;;11.23;4.28;;;;;;;;;;5014301;28;20255;-75
2024/01/31 14:00:04;;;;;;;6.53;4.20;;;;;;;;;;5014341;28;20030;-75
2024/01/31 14:02:30;;;;;;;5.80;4.25;;;;;;;;;;5013510;28;20330;-76
2024/01/31 14:04:55;;;;;;;6.72;4.43;;;;;;;;;;5013453;28;20022;-76
2024/01/31 14:07:20;;;;;;;5.68;4.32;;;;;;;;;;5013664;28;20061;-76
2024/01/31 14:09:45;;;;;;;10.37;4.67;;;;;;;;;;4995383;28;20489;-76